sensor_id;sensor_type;location;lat;lon;timestamp;P1;durP1;ratioP1;P2;durP2;ratioP2
53269;SDS011;39159;45.634;9.420;2023-11-21T00:01:00;51.33;;;34.60;;
53269;SDS011;39159;45.634;9.420;2023-11-21T00:03:29;53.42;;;33.80;;
53269;SDS011;39159;45.634;9.420;2023-11-21T00:05:54;51.42;;;32.28;;
53269;SDS011;39159;45.634;9.420;2023-11-21T00:08:20;47.83;;;32.63;;
53269;SDS011;39159;45.634;9.420;2023-11-21T00:10:45;52.08;;;33.50;;
53269;SDS011;39159;45.634;9.420;2023-11-21T00:13:10;50.78;;;34.30;;
53269;SDS011;39159;45.634;9.420;2023-11-21T00:15:37;51.40;;;33.85;;
53269;SDS011;39159;45.634;9.420;2023-11-21T00:18:03;51.55;;;33.70;;
53269;SDS011;39159;45.634;9.420;2023-11-21T00:20:28;50.50;;;33.38;;
53269;SDS011;39159;45.634;9.420;2023-11-21T00:22:53;55.08;;;34.28;;
53269;SDS011;39159;45.634;9.420;2023-11-21T00:25:19;52.05;;;32.80;;
53269;SDS011;39159;45.634;9.420;2023-11-21T00:27:45;55.80;;;34.67;;
53269;SDS011;39159;45.634;9.420;2023-11-21T00:30:10;58.38;;;34.75;;
53269;SDS011;39159;45.634;9.420;2023-11-21T00:32:36;57.03;;;35.58;;
53269;SDS011;39159;45.634;9.420;2023-11-21T00:35:02;53.78;;;34.67;;
53269;SDS011;39159;45.634;9.420;2023-11-21T00:37:28;54.95;;;33.60;;
53269;SDS011;39159;45.634;9.420;2023-11-21T00:39:53;52.35;;;33.15;;
53269;SDS011;39159;45.634;9.420;2023-11-21T00:42:19;51.05;;;31.77;;
53269;SDS011;39159;45.634;9.420;2023-11-21T00:44:44;55.65;;;33.15;;
53269;SDS011;39159;45.634;9.420;2023-11-21T00:47:10;54.45;;;34.00;;
53269;SDS011;39159;45.634;9.420;2023-11-21T00:49:35;50.58;;;30.00;;
53269;SDS011;39159;45.634;9.420;2023-11-21T00:52:01;47.47;;;30.30;;
53269;SDS011;39159;45.634;9.420;2023-11-21T00:54:27;51.65;;;30.92;;
53269;SDS011;39159;45.634;9.420;2023-11-21T00:56:53;54.58;;;32.20;;
53269;SDS011;39159;45.634;9.420;2023-11-21T00:59:18;54.33;;;31.60;;
53269;SDS011;39159;45.634;9.420;2023-11-21T01:01:44;54.67;;;32.08;;
53269;SDS011;39159;45.634;9.420;2023-11-21T01:04:09;52.03;;;30.63;;
53269;SDS011;39159;45.634;9.420;2023-11-21T01:06:35;57.22;;;31.35;;
53269;SDS011;39159;45.634;9.420;2023-11-21T01:09:00;49.65;;;29.65;;
53269;SDS011;39159;45.634;9.420;2023-11-21T01:11:26;51.75;;;28.10;;
53269;SDS011;39159;45.634;9.420;2023-11-21T01:13:51;44.00;;;27.77;;
53269;SDS011;39159;45.634;9.420;2023-11-21T01:16:18;49.42;;;28.52;;
53269;SDS011;39159;45.634;9.420;2023-11-21T01:18:43;47.85;;;26.85;;
53269;SDS011;39159;45.634;9.420;2023-11-21T01:21:09;51.28;;;26.63;;
53269;SDS011;39159;45.634;9.420;2023-11-21T01:23:34;51.75;;;27.67;;
53269;SDS011;39159;45.634;9.420;2023-11-21T01:26:00;45.00;;;27.73;;
53269;SDS011;39159;45.634;9.420;2023-11-21T01:28:25;52.97;;;26.50;;
53269;SDS011;39159;45.634;9.420;2023-11-21T01:30:51;55.10;;;27.95;;
53269;SDS011;39159;45.634;9.420;2023-11-21T01:33:18;42.95;;;26.85;;
53269;SDS011;39159;45.634;9.420;2023-11-21T01:35:43;53.47;;;29.67;;
53269;SDS011;39159;45.634;9.420;2023-11-21T01:38:09;51.78;;;28.63;;
53269;SDS011;39159;45.634;9.420;2023-11-21T01:40:35;51.55;;;28.58;;
53269;SDS011;39159;45.634;9.420;2023-11-21T01:43:00;54.80;;;29.27;;
53269;SDS011;39159;45.634;9.420;2023-11-21T01:45:28;50.58;;;29.15;;
53269;SDS011;39159;45.634;9.420;2023-11-21T01:47:55;51.83;;;29.90;;
53269;SDS011;39159;45.634;9.420;2023-11-21T01:50:21;51.72;;;29.13;;
53269;SDS011;39159;45.634;9.420;2023-11-21T01:52:47;51.38;;;30.98;;
53269;SDS011;39159;45.634;9.420;2023-11-21T01:55:14;51.30;;;30.65;;
53269;SDS011;39159;45.634;9.420;2023-11-21T01:57:45;56.50;;;31.23;;
53269;SDS011;39159;45.634;9.420;2023-11-21T02:00:11;55.85;;;30.40;;
53269;SDS011;39159;45.634;9.420;2023-11-21T02:02:43;44.13;;;27.90;;
53269;SDS011;39159;45.634;9.420;2023-11-21T02:05:16;54.05;;;29.60;;
53269;SDS011;39159;45.634;9.420;2023-11-21T02:07:43;48.00;;;27.67;;
53269;SDS011;39159;45.634;9.420;2023-11-21T02:10:09;53.50;;;30.13;;
53269;SDS011;39159;45.634;9.420;2023-11-21T02:12:39;51.58;;;30.23;;
53269;SDS011;39159;45.634;9.420;2023-11-21T02:15:07;52.70;;;31.63;;
53269;SDS011;39159;45.634;9.420;2023-11-21T02:17:40;54.10;;;31.88;;
53269;SDS011;39159;45.634;9.420;2023-11-21T02:20:08;53.20;;;30.75;;
53269;SDS011;39159;45.634;9.420;2023-11-21T02:22:40;57.65;;;30.77;;
53269;SDS011;39159;45.634;9.420;2023-11-21T02:25:09;49.60;;;28.65;;
53269;SDS011;39159;45.634;9.420;2023-11-21T02:27:36;51.17;;;28.08;;
53269;SDS011;39159;45.634;9.420;2023-11-21T02:30:02;53.75;;;28.35;;
53269;SDS011;39159;45.634;9.420;2023-11-21T02:32:29;61.00;;;27.50;;
53269;SDS011;39159;45.634;9.420;2023-11-21T02:34:56;49.72;;;26.83;;
53269;SDS011;39159;45.634;9.420;2023-11-21T02:37:25;58.13;;;27.73;;
53269;SDS011;39159;45.634;9.420;2023-11-21T02:39:51;65.00;;;28.70;;
53269;SDS011;39159;45.634;9.420;2023-11-21T02:42:17;59.58;;;28.83;;
53269;SDS011;39159;45.634;9.420;2023-11-21T02:44:43;59.25;;;29.02;;
53269;SDS011;39159;45.634;9.420;2023-11-21T02:47:08;54.40;;;28.52;;
53269;SDS011;39159;45.634;9.420;2023-11-21T02:49:34;54.85;;;27.27;;
53269;SDS011;39159;45.634;9.420;2023-11-21T02:52:00;60.05;;;29.23;;
53269;SDS011;39159;45.634;9.420;2023-11-21T02:54:27;56.80;;;28.25;;
53269;SDS011;39159;45.634;9.420;2023-11-21T02:56:52;64.00;;;28.33;;
53269;SDS011;39159;45.634;9.420;2023-11-21T02:59:18;55.65;;;29.20;;
53269;SDS011;39159;45.634;9.420;2023-11-21T03:01:44;61.30;;;27.95;;
53269;SDS011;39159;45.634;9.420;2023-11-21T03:04:10;54.00;;;28.13;;
53269;SDS011;39159;45.634;9.420;2023-11-21T03:06:36;57.03;;;27.92;;
53269;SDS011;39159;45.634;9.420;2023-11-21T03:09:01;59.33;;;27.88;;
53269;SDS011;39159;45.634;9.420;2023-11-21T03:11:26;61.85;;;27.70;;
53269;SDS011;39159;45.634;9.420;2023-11-21T03:13:52;53.55;;;28.98;;
53269;SDS011;39159;45.634;9.420;2023-11-21T03:16:18;56.80;;;28.20;;
53269;SDS011;39159;45.634;9.420;2023-11-21T03:18:44;64.82;;;29.30;;
53269;SDS011;39159;45.634;9.420;2023-11-21T03:21:09;57.08;;;27.83;;
53269;SDS011;39159;45.634;9.420;2023-11-21T03:23:35;54.42;;;29.45;;
53269;SDS011;39159;45.634;9.420;2023-11-21T03:26:01;55.72;;;28.00;;
53269;SDS011;39159;45.634;9.420;2023-11-21T03:28:27;61.83;;;28.45;;
53269;SDS011;39159;45.634;9.420;2023-11-21T03:30:53;53.63;;;26.98;;
53269;SDS011;39159;45.634;9.420;2023-11-21T03:33:18;53.15;;;28.75;;
53269;SDS011;39159;45.634;9.420;2023-11-21T03:35:43;60.03;;;29.10;;
53269;SDS011;39159;45.634;9.420;2023-11-21T03:38:10;59.33;;;28.50;;
53269;SDS011;39159;45.634;9.420;2023-11-21T03:40:35;59.08;;;30.10;;
53269;SDS011;39159;45.634;9.420;2023-11-21T03:43:01;55.40;;;28.80;;
53269;SDS011;39159;45.634;9.420;2023-11-21T03:45:26;59.80;;;29.05;;
53269;SDS011;39159;45.634;9.420;2023-11-21T03:47:52;54.75;;;28.58;;
53269;SDS011;39159;45.634;9.420;2023-11-21T03:50:17;53.92;;;29.05;;
53269;SDS011;39159;45.634;9.420;2023-11-21T03:52:43;52.03;;;27.88;;
53269;SDS011;39159;45.634;9.420;2023-11-21T03:55:08;51.35;;;27.92;;
53269;SDS011;39159;45.634;9.420;2023-11-21T03:57:35;50.03;;;27.20;;
53269;SDS011;39159;45.634;9.420;2023-11-21T04:00:01;59.05;;;29.85;;
53269;SDS011;39159;45.634;9.420;2023-11-21T04:02:29;56.53;;;30.33;;
53269;SDS011;39159;45.634;9.420;2023-11-21T04:04:56;55.53;;;30.25;;
53269;SDS011;39159;45.634;9.420;2023-11-21T04:07:21;51.65;;;28.13;;
53269;SDS011;39159;45.634;9.420;2023-11-21T04:09:47;53.33;;;30.15;;
53269;SDS011;39159;45.634;9.420;2023-11-21T04:12:13;59.90;;;30.73;;
53269;SDS011;39159;45.634;9.420;2023-11-21T04:14:38;57.03;;;30.48;;
53269;SDS011;39159;45.634;9.420;2023-11-21T04:17:03;56.15;;;29.25;;
53269;SDS011;39159;45.634;9.420;2023-11-21T04:19:29;56.45;;;29.92;;
53269;SDS011;39159;45.634;9.420;2023-11-21T04:21:54;61.78;;;30.60;;
53269;SDS011;39159;45.634;9.420;2023-11-21T04:24:20;56.75;;;29.13;;
53269;SDS011;39159;45.634;9.420;2023-11-21T04:26:45;54.08;;;29.50;;
53269;SDS011;39159;45.634;9.420;2023-11-21T04:29:11;54.10;;;30.23;;
53269;SDS011;39159;45.634;9.420;2023-11-21T04:31:36;56.22;;;30.95;;
53269;SDS011;39159;45.634;9.420;2023-11-21T04:34:02;58.08;;;31.48;;
53269;SDS011;39159;45.634;9.420;2023-11-21T04:36:29;58.83;;;30.67;;
53269;SDS011;39159;45.634;9.420;2023-11-21T04:38:55;62.78;;;31.88;;
53269;SDS011;39159;45.634;9.420;2023-11-21T04:41:21;56.72;;;30.48;;
53269;SDS011;39159;45.634;9.420;2023-11-21T04:43:46;54.67;;;29.85;;
53269;SDS011;39159;45.634;9.420;2023-11-21T04:46:12;53.53;;;28.83;;
53269;SDS011;39159;45.634;9.420;2023-11-21T04:48:37;49.40;;;27.95;;
53269;SDS011;39159;45.634;9.420;2023-11-21T04:51:03;54.38;;;29.98;;
53269;SDS011;39159;45.634;9.420;2023-11-21T04:53:29;57.15;;;30.80;;
53269;SDS011;39159;45.634;9.420;2023-11-21T04:55:55;58.45;;;31.00;;
53269;SDS011;39159;45.634;9.420;2023-11-21T04:58:20;58.15;;;32.13;;
53269;SDS011;39159;45.634;9.420;2023-11-21T05:00:45;63.67;;;32.20;;
53269;SDS011;39159;45.634;9.420;2023-11-21T05:03:11;54.53;;;32.08;;
53269;SDS011;39159;45.634;9.420;2023-11-21T05:05:37;58.42;;;31.20;;
53269;SDS011;39159;45.634;9.420;2023-11-21T05:08:02;61.17;;;32.78;;
53269;SDS011;39159;45.634;9.420;2023-11-21T05:10:28;64.47;;;33.15;;
53269;SDS011;39159;45.634;9.420;2023-11-21T05:12:54;60.30;;;32.65;;
53269;SDS011;39159;45.634;9.420;2023-11-21T05:15:20;59.85;;;32.67;;
53269;SDS011;39159;45.634;9.420;2023-11-21T05:17:46;64.28;;;33.58;;
53269;SDS011;39159;45.634;9.420;2023-11-21T05:20:14;67.43;;;33.40;;
53269;SDS011;39159;45.634;9.420;2023-11-21T05:22:43;64.07;;;31.88;;
53269;SDS011;39159;45.634;9.420;2023-11-21T05:25:08;54.50;;;31.63;;
53269;SDS011;39159;45.634;9.420;2023-11-21T05:27:35;52.83;;;30.23;;
53269;SDS011;39159;45.634;9.420;2023-11-21T05:30:01;64.20;;;32.97;;
53269;SDS011;39159;45.634;9.420;2023-11-21T05:32:30;61.65;;;34.08;;
53269;SDS011;39159;45.634;9.420;2023-11-21T05:34:55;61.70;;;33.05;;
53269;SDS011;39159;45.634;9.420;2023-11-21T05:37:21;69.63;;;32.95;;
53269;SDS011;39159;45.634;9.420;2023-11-21T05:39:48;60.00;;;33.03;;
53269;SDS011;39159;45.634;9.420;2023-11-21T05:42:13;69.05;;;36.22;;
53269;SDS011;39159;45.634;9.420;2023-11-21T05:44:40;67.10;;;34.17;;
53269;SDS011;39159;45.634;9.420;2023-11-21T05:47:08;65.00;;;34.50;;
53269;SDS011;39159;45.634;9.420;2023-11-21T05:49:33;64.85;;;35.05;;
53269;SDS011;39159;45.634;9.420;2023-11-21T05:51:59;57.55;;;33.15;;
53269;SDS011;39159;45.634;9.420;2023-11-21T05:54:24;57.78;;;32.33;;
53269;SDS011;39159;45.634;9.420;2023-11-21T05:56:51;58.33;;;32.70;;
53269;SDS011;39159;45.634;9.420;2023-11-21T05:59:16;55.35;;;32.25;;
53269;SDS011;39159;45.634;9.420;2023-11-21T06:01:42;53.45;;;30.88;;
53269;SDS011;39159;45.634;9.420;2023-11-21T06:04:07;50.70;;;30.77;;
53269;SDS011;39159;45.634;9.420;2023-11-21T06:06:36;50.30;;;30.67;;
53269;SDS011;39159;45.634;9.420;2023-11-21T06:09:01;53.05;;;30.80;;
53269;SDS011;39159;45.634;9.420;2023-11-21T06:11:27;48.15;;;29.55;;
53269;SDS011;39159;45.634;9.420;2023-11-21T06:13:53;49.42;;;29.15;;
53269;SDS011;39159;45.634;9.420;2023-11-21T06:16:18;52.38;;;30.73;;
53269;SDS011;39159;45.634;9.420;2023-11-21T06:18:45;47.78;;;29.00;;
53269;SDS011;39159;45.634;9.420;2023-11-21T06:21:10;45.13;;;28.70;;
53269;SDS011;39159;45.634;9.420;2023-11-21T06:23:36;46.05;;;28.33;;
53269;SDS011;39159;45.634;9.420;2023-11-21T06:26:02;45.75;;;28.30;;
53269;SDS011;39159;45.634;9.420;2023-11-21T06:28:27;46.03;;;29.10;;
53269;SDS011;39159;45.634;9.420;2023-11-21T06:30:52;42.05;;;27.38;;
53269;SDS011;39159;45.634;9.420;2023-11-21T06:33:18;50.22;;;29.25;;
53269;SDS011;39159;45.634;9.420;2023-11-21T06:35:44;47.85;;;28.83;;
53269;SDS011;39159;45.634;9.420;2023-11-21T06:38:09;44.50;;;29.42;;
53269;SDS011;39159;45.634;9.420;2023-11-21T06:40:35;48.53;;;28.90;;
53269;SDS011;39159;45.634;9.420;2023-11-21T06:43:00;46.28;;;29.80;;
53269;SDS011;39159;45.634;9.420;2023-11-21T06:45:26;59.80;;;32.63;;
53269;SDS011;39159;45.634;9.420;2023-11-21T06:47:51;50.45;;;31.85;;
53269;SDS011;39159;45.634;9.420;2023-11-21T06:50:17;53.88;;;31.80;;
53269;SDS011;39159;45.634;9.420;2023-11-21T06:52:42;60.95;;;34.17;;
53269;SDS011;39159;45.634;9.420;2023-11-21T06:55:08;55.05;;;31.58;;
53269;SDS011;39159;45.634;9.420;2023-11-21T06:57:34;57.00;;;31.33;;
53269;SDS011;39159;45.634;9.420;2023-11-21T07:00:00;60.60;;;33.85;;
53269;SDS011;39159;45.634;9.420;2023-11-21T07:02:26;70.95;;;37.13;;
53269;SDS011;39159;45.634;9.420;2023-11-21T07:04:52;68.88;;;37.83;;
53269;SDS011;39159;45.634;9.420;2023-11-21T07:07:18;69.07;;;39.30;;
53269;SDS011;39159;45.634;9.420;2023-11-21T07:09:44;69.53;;;38.92;;
53269;SDS011;39159;45.634;9.420;2023-11-21T07:12:09;71.88;;;40.05;;
53269;SDS011;39159;45.634;9.420;2023-11-21T07:14:36;67.72;;;37.35;;
53269;SDS011;39159;45.634;9.420;2023-11-21T07:17:02;75.85;;;39.95;;
53269;SDS011;39159;45.634;9.420;2023-11-21T07:19:27;75.32;;;40.60;;
53269;SDS011;39159;45.634;9.420;2023-11-21T07:21:54;72.28;;;39.88;;
53269;SDS011;39159;45.634;9.420;2023-11-21T07:24:20;70.85;;;40.17;;
53269;SDS011;39159;45.634;9.420;2023-11-21T07:26:45;65.30;;;38.75;;
53269;SDS011;39159;45.634;9.420;2023-11-21T07:29:11;71.25;;;39.20;;
53269;SDS011;39159;45.634;9.420;2023-11-21T07:31:37;71.50;;;39.03;;
53269;SDS011;39159;45.634;9.420;2023-11-21T07:34:03;69.18;;;39.30;;
53269;SDS011;39159;45.634;9.420;2023-11-21T07:36:28;69.53;;;38.60;;
53269;SDS011;39159;45.634;9.420;2023-11-21T07:38:54;65.38;;;38.03;;
53269;SDS011;39159;45.634;9.420;2023-11-21T07:41:19;69.72;;;39.45;;
53269;SDS011;39159;45.634;9.420;2023-11-21T07:43:45;71.47;;;39.45;;
53269;SDS011;39159;45.634;9.420;2023-11-21T07:46:11;70.35;;;38.47;;
53269;SDS011;39159;45.634;9.420;2023-11-21T07:48:38;65.07;;;38.45;;
53269;SDS011;39159;45.634;9.420;2023-11-21T07:51:04;66.75;;;38.92;;
53269;SDS011;39159;45.634;9.420;2023-11-21T07:53:30;73.63;;;40.70;;
53269;SDS011;39159;45.634;9.420;2023-11-21T07:55:57;70.15;;;41.33;;
53269;SDS011;39159;45.634;9.420;2023-11-21T07:58:23;69.57;;;40.45;;
53269;SDS011;39159;45.634;9.420;2023-11-21T08:00:49;75.25;;;40.85;;
53269;SDS011;39159;45.634;9.420;2023-11-21T08:03:14;65.13;;;38.20;;
53269;SDS011;39159;45.634;9.420;2023-11-21T08:05:40;66.60;;;39.45;;
53269;SDS011;39159;45.634;9.420;2023-11-21T08:08:06;66.80;;;38.83;;
53269;SDS011;39159;45.634;9.420;2023-11-21T08:10:32;64.82;;;37.65;;
53269;SDS011;39159;45.634;9.420;2023-11-21T08:12:58;74.35;;;39.63;;
53269;SDS011;39159;45.634;9.420;2023-11-21T08:15:23;61.50;;;36.88;;
53269;SDS011;39159;45.634;9.420;2023-11-21T08:17:48;55.88;;;35.40;;
53269;SDS011;39159;45.634;9.420;2023-11-21T08:20:14;61.35;;;35.42;;
53269;SDS011;39159;45.634;9.420;2023-11-21T08:22:43;56.95;;;34.60;;
53269;SDS011;39159;45.634;9.420;2023-11-21T08:25:09;60.42;;;36.90;;
53269;SDS011;39159;45.634;9.420;2023-11-21T08:27:35;61.05;;;36.97;;
53269;SDS011;39159;45.634;9.420;2023-11-21T08:30:02;63.72;;;36.80;;
53269;SDS011;39159;45.634;9.420;2023-11-21T08:32:28;65.55;;;37.03;;
53269;SDS011;39159;45.634;9.420;2023-11-21T08:34:55;62.90;;;38.92;;
53269;SDS011;39159;45.634;9.420;2023-11-21T08:37:20;62.92;;;38.60;;
53269;SDS011;39159;45.634;9.420;2023-11-21T08:39:47;63.92;;;39.67;;
53269;SDS011;39159;45.634;9.420;2023-11-21T08:42:13;58.78;;;37.70;;
53269;SDS011;39159;45.634;9.420;2023-11-21T08:44:39;61.92;;;35.78;;
53269;SDS011;39159;45.634;9.420;2023-11-21T08:47:05;65.05;;;37.33;;
53269;SDS011;39159;45.634;9.420;2023-11-21T08:49:30;64.35;;;38.17;;
53269;SDS011;39159;45.634;9.420;2023-11-21T08:51:56;57.17;;;35.20;;
53269;SDS011;39159;45.634;9.420;2023-11-21T08:54:24;66.05;;;37.05;;
53269;SDS011;39159;45.634;9.420;2023-11-21T08:56:50;56.92;;;36.50;;
53269;SDS011;39159;45.634;9.420;2023-11-21T08:59:16;58.88;;;36.90;;
53269;SDS011;39159;45.634;9.420;2023-11-21T09:01:41;63.40;;;35.97;;
53269;SDS011;39159;45.634;9.420;2023-11-21T09:04:07;60.63;;;35.38;;
53269;SDS011;39159;45.634;9.420;2023-11-21T09:06:32;52.38;;;34.45;;
53269;SDS011;39159;45.634;9.420;2023-11-21T09:08:57;54.95;;;34.42;;
53269;SDS011;39159;45.634;9.420;2023-11-21T09:11:23;53.10;;;32.67;;
53269;SDS011;39159;45.634;9.420;2023-11-21T09:13:50;53.20;;;33.42;;
53269;SDS011;39159;45.634;9.420;2023-11-21T09:16:16;58.05;;;34.70;;
53269;SDS011;39159;45.634;9.420;2023-11-21T09:18:42;52.80;;;33.47;;
53269;SDS011;39159;45.634;9.420;2023-11-21T09:21:07;52.85;;;32.33;;
53269;SDS011;39159;45.634;9.420;2023-11-21T09:23:35;48.25;;;31.77;;
53269;SDS011;39159;45.634;9.420;2023-11-21T09:26:00;52.80;;;32.45;;
53269;SDS011;39159;45.634;9.420;2023-11-21T09:28:26;47.53;;;31.45;;
53269;SDS011;39159;45.634;9.420;2023-11-21T09:30:52;51.75;;;33.33;;
53269;SDS011;39159;45.634;9.420;2023-11-21T09:33:20;49.17;;;31.08;;
53269;SDS011;39159;45.634;9.420;2023-11-21T09:35:47;45.70;;;31.58;;
53269;SDS011;39159;45.634;9.420;2023-11-21T09:38:13;49.80;;;33.30;;
53269;SDS011;39159;45.634;9.420;2023-11-21T09:40:39;49.92;;;33.30;;
53269;SDS011;39159;45.634;9.420;2023-11-21T09:43:09;42.85;;;30.42;;
53269;SDS011;39159;45.634;9.420;2023-11-21T09:45:43;50.92;;;31.55;;
53269;SDS011;39159;45.634;9.420;2023-11-21T09:48:10;46.00;;;31.05;;
53269;SDS011;39159;45.634;9.420;2023-11-21T09:50:36;46.67;;;31.92;;
53269;SDS011;39159;45.634;9.420;2023-11-21T09:53:18;45.97;;;32.47;;
53269;SDS011;39159;45.634;9.420;2023-11-21T09:55:50;49.75;;;31.73;;
53269;SDS011;39159;45.634;9.420;2023-11-21T09:58:17;43.10;;;30.55;;
53269;SDS011;39159;45.634;9.420;2023-11-21T10:00:44;39.97;;;29.23;;
53269;SDS011;39159;45.634;9.420;2023-11-21T10:03:11;41.92;;;29.95;;
53269;SDS011;39159;45.634;9.420;2023-11-21T10:05:37;44.17;;;29.77;;
53269;SDS011;39159;45.634;9.420;2023-11-21T10:08:12;48.03;;;31.20;;
53269;SDS011;39159;45.634;9.420;2023-11-21T10:10:38;50.00;;;29.67;;
53269;SDS011;39159;45.634;9.420;2023-11-21T10:15:37;41.63;;;28.77;;
53269;SDS011;39159;45.634;9.420;2023-11-21T10:18:03;43.40;;;29.25;;
53269;SDS011;39159;45.634;9.420;2023-11-21T10:20:31;49.05;;;30.30;;
53269;SDS011;39159;45.634;9.420;2023-11-21T10:22:58;42.22;;;28.27;;
53269;SDS011;39159;45.634;9.420;2023-11-21T10:25:26;44.80;;;28.73;;
53269;SDS011;39159;45.634;9.420;2023-11-21T10:27:57;44.47;;;30.10;;
53269;SDS011;39159;45.634;9.420;2023-11-21T10:30:27;41.70;;;29.10;;
53269;SDS011;39159;45.634;9.420;2023-11-21T10:35:38;43.22;;;28.35;;
53269;SDS011;39159;45.634;9.420;2023-11-21T10:38:06;39.15;;;26.17;;
53269;SDS011;39159;45.634;9.420;2023-11-21T10:40:37;41.58;;;26.58;;
53269;SDS011;39159;45.634;9.420;2023-11-21T10:43:07;40.25;;;27.17;;
53269;SDS011;39159;45.634;9.420;2023-11-21T10:45:37;37.13;;;25.83;;
53269;SDS011;39159;45.634;9.420;2023-11-21T10:48:06;34.72;;;25.90;;
53269;SDS011;39159;45.634;9.420;2023-11-21T10:50:37;42.42;;;28.17;;
53269;SDS011;39159;45.634;9.420;2023-11-21T10:53:05;38.88;;;25.83;;
53269;SDS011;39159;45.634;9.420;2023-11-21T10:55:32;37.40;;;26.13;;
53269;SDS011;39159;45.634;9.420;2023-11-21T10:57:58;38.33;;;26.67;;
53269;SDS011;39159;45.634;9.420;2023-11-21T11:00:27;41.95;;;26.85;;
53269;SDS011;39159;45.634;9.420;2023-11-21T11:02:53;38.95;;;26.23;;
53269;SDS011;39159;45.634;9.420;2023-11-21T11:05:21;36.90;;;25.25;;
53269;SDS011;39159;45.634;9.420;2023-11-21T11:07:51;36.00;;;25.48;;
53269;SDS011;39159;45.634;9.420;2023-11-21T11:10:37;35.95;;;24.58;;
53269;SDS011;39159;45.634;9.420;2023-11-21T11:13:03;36.65;;;26.00;;
53269;SDS011;39159;45.634;9.420;2023-11-21T11:15:31;34.50;;;24.30;;
53269;SDS011;39159;45.634;9.420;2023-11-21T11:17:57;34.35;;;23.92;;
53269;SDS011;39159;45.634;9.420;2023-11-21T11:20:22;37.75;;;24.02;;
53269;SDS011;39159;45.634;9.420;2023-11-21T11:28:21;34.10;;;23.10;;
53269;SDS011;39159;45.634;9.420;2023-11-21T11:38:58;32.97;;;21.65;;
53269;SDS011;39159;45.634;9.420;2023-11-21T11:41:27;29.52;;;19.75;;
53269;SDS011;39159;45.634;9.420;2023-11-21T11:43:55;30.58;;;21.17;;
53269;SDS011;39159;45.634;9.420;2023-11-21T11:46:22;33.97;;;23.15;;
53269;SDS011;39159;45.634;9.420;2023-11-21T11:49:06;31.17;;;22.55;;
53269;SDS011;39159;45.634;9.420;2023-11-21T11:51:33;32.17;;;21.65;;
53269;SDS011;39159;45.634;9.420;2023-11-21T11:54:00;35.20;;;23.08;;
53269;SDS011;39159;45.634;9.420;2023-11-21T11:56:33;33.50;;;22.00;;
53269;SDS011;39159;45.634;9.420;2023-11-21T11:59:04;35.30;;;23.25;;
53269;SDS011;39159;45.634;9.420;2023-11-21T12:01:30;36.05;;;23.83;;
53269;SDS011;39159;45.634;9.420;2023-11-21T12:06:59;37.38;;;23.73;;
53269;SDS011;39159;45.634;9.420;2023-11-21T12:09:27;30.38;;;22.27;;
53269;SDS011;39159;45.634;9.420;2023-11-21T12:11:55;35.83;;;24.52;;
53269;SDS011;39159;45.634;9.420;2023-11-21T12:14:23;35.28;;;22.02;;
53269;SDS011;39159;45.634;9.420;2023-11-21T12:16:49;31.10;;;22.83;;
53269;SDS011;39159;45.634;9.420;2023-11-21T12:19:15;33.75;;;24.13;;
53269;SDS011;39159;45.634;9.420;2023-11-21T12:21:40;31.83;;;21.00;;
53269;SDS011;39159;45.634;9.420;2023-11-21T12:24:06;34.78;;;21.55;;
53269;SDS011;39159;45.634;9.420;2023-11-21T12:26:33;36.40;;;23.50;;
53269;SDS011;39159;45.634;9.420;2023-11-21T12:29:02;35.75;;;22.88;;
53269;SDS011;39159;45.634;9.420;2023-11-21T12:31:29;33.05;;;23.98;;
53269;SDS011;39159;45.634;9.420;2023-11-21T12:33:55;35.35;;;23.25;;
53269;SDS011;39159;45.634;9.420;2023-11-21T12:36:21;37.47;;;23.25;;
53269;SDS011;39159;45.634;9.420;2023-11-21T12:38:47;36.83;;;23.75;;
53269;SDS011;39159;45.634;9.420;2023-11-21T12:41:12;32.05;;;21.52;;
53269;SDS011;39159;45.634;9.420;2023-11-21T12:43:38;39.05;;;24.08;;
53269;SDS011;39159;45.634;9.420;2023-11-21T12:46:08;35.92;;;23.63;;
53269;SDS011;39159;45.634;9.420;2023-11-21T12:48:37;37.17;;;23.58;;
53269;SDS011;39159;45.634;9.420;2023-11-21T12:51:09;36.80;;;24.98;;
53269;SDS011;39159;45.634;9.420;2023-11-21T12:53:36;40.30;;;26.08;;
53269;SDS011;39159;45.634;9.420;2023-11-21T12:56:06;41.63;;;27.17;;
53269;SDS011;39159;45.634;9.420;2023-11-21T12:58:34;38.97;;;25.35;;
53269;SDS011;39159;45.634;9.420;2023-11-21T13:01:01;40.13;;;26.75;;
53269;SDS011;39159;45.634;9.420;2023-11-21T13:03:29;38.15;;;25.75;;
53269;SDS011;39159;45.634;9.420;2023-11-21T13:05:55;36.25;;;24.48;;
53269;SDS011;39159;45.634;9.420;2023-11-21T13:08:22;34.72;;;23.38;;
53269;SDS011;39159;45.634;9.420;2023-11-21T13:10:51;36.20;;;24.73;;
53269;SDS011;39159;45.634;9.420;2023-11-21T13:13:19;36.10;;;24.55;;
53269;SDS011;39159;45.634;9.420;2023-11-21T13:15:51;37.10;;;24.70;;
53269;SDS011;39159;45.634;9.420;2023-11-21T13:18:23;39.05;;;26.05;;
53269;SDS011;39159;45.634;9.420;2023-11-21T13:20:49;37.20;;;24.63;;
53269;SDS011;39159;45.634;9.420;2023-11-21T13:23:15;43.78;;;26.42;;
53269;SDS011;39159;45.634;9.420;2023-11-21T13:25:41;38.22;;;25.50;;
53269;SDS011;39159;45.634;9.420;2023-11-21T13:28:08;36.50;;;24.35;;
53269;SDS011;39159;45.634;9.420;2023-11-21T13:30:35;32.45;;;23.42;;
53269;SDS011;39159;45.634;9.420;2023-11-21T13:33:01;41.20;;;26.02;;
53269;SDS011;39159;45.634;9.420;2023-11-21T13:35:34;39.42;;;26.30;;
53269;SDS011;39159;45.634;9.420;2023-11-21T13:38:09;37.40;;;25.80;;
53269;SDS011;39159;45.634;9.420;2023-11-21T13:40:37;40.13;;;26.05;;
53269;SDS011;39159;45.634;9.420;2023-11-21T13:43:11;37.22;;;24.45;;
53269;SDS011;39159;45.634;9.420;2023-11-21T13:45:38;45.92;;;28.85;;
53269;SDS011;39159;45.634;9.420;2023-11-21T13:48:05;41.88;;;26.83;;
53269;SDS011;39159;45.634;9.420;2023-11-21T13:50:38;45.58;;;28.05;;
53269;SDS011;39159;45.634;9.420;2023-11-21T13:53:07;39.85;;;26.77;;
53269;SDS011;39159;45.634;9.420;2023-11-21T13:55:44;46.08;;;28.35;;
53269;SDS011;39159;45.634;9.420;2023-11-21T13:58:10;44.08;;;29.40;;
53269;SDS011;39159;45.634;9.420;2023-11-21T14:00:42;42.63;;;29.15;;
53269;SDS011;39159;45.634;9.420;2023-11-21T14:03:13;43.97;;;28.98;;
53269;SDS011;39159;45.634;9.420;2023-11-21T14:05:50;49.03;;;30.15;;
53269;SDS011;39159;45.634;9.420;2023-11-21T14:08:20;45.25;;;28.92;;
53269;SDS011;39159;45.634;9.420;2023-11-21T14:10:49;44.75;;;27.75;;
53269;SDS011;39159;45.634;9.420;2023-11-21T14:13:22;44.67;;;27.10;;
53269;SDS011;39159;45.634;9.420;2023-11-21T14:15:57;43.30;;;27.02;;
53269;SDS011;39159;45.634;9.420;2023-11-21T14:18:24;49.10;;;28.98;;
53269;SDS011;39159;45.634;9.420;2023-11-21T14:21:01;43.13;;;27.27;;
53269;SDS011;39159;45.634;9.420;2023-11-21T14:23:26;42.92;;;26.73;;
53269;SDS011;39159;45.634;9.420;2023-11-21T14:25:53;39.67;;;25.33;;
53269;SDS011;39159;45.634;9.420;2023-11-21T14:28:19;40.67;;;24.00;;
53269;SDS011;39159;45.634;9.420;2023-11-21T14:30:48;34.83;;;21.92;;
53269;SDS011;39159;45.634;9.420;2023-11-21T14:33:14;33.63;;;20.20;;
53269;SDS011;39159;45.634;9.420;2023-11-21T14:35:41;27.95;;;18.80;;
53269;SDS011;39159;45.634;9.420;2023-11-21T14:38:08;29.50;;;19.25;;
53269;SDS011;39159;45.634;9.420;2023-11-21T14:40:34;33.90;;;20.88;;